Time;durP1;ratioP1;P1;durP2;ratioP2;P2;SDS_P1;SDS_P2;PMS_P1;PMS_P2;Temp;Humidity;BMP_temperature;BMP_pressure;BME280_temperature;BME280_humidity;BME280_pressure;Samples;Min_cycle;Max_cycle;Signal;HPM_P1;HPM_P2
2022/08/03 00:01:52;;;;;;;4.63;1.30;;;21.80;60.30;;;;;;5017646;28;20049;-64
2022/08/03 00:04:18;;;;;;;4.75;1.40;;;21.80;60.30;;;;;;5017690;28;20073;-64
2022/08/03 00:06:44;;;;;;;6.88;1.40;;;21.70;60.60;;;;;;5000881;28;20525;-64
2022/08/03 00:09:10;;;;;;;3.80;1.30;;;21.70;60.80;;;;;;5034088;28;20044;-64
2022/08/03 00:11:36;;;;;;;4.80;1.55;;;21.70;60.80;;;;;;5034037;28;20048;-65
2022/08/03 00:14:06;;;;;;;4.78;1.42;;;21.60;60.90;;;;;;5035281;28;20037;-65
2022/08/03 00:16:32;;;;;;;5.03;1.35;;;21.60;60.80;;;;;;5035145;28;20052;-65
2022/08/03 00:18:58;;;;;;;4.70;1.67;;;21.60;60.90;;;;;;5033889;28;20033;-65
2022/08/03 00:21:23;;;;;;;4.95;1.20;;;21.60;60.70;;;;;;5017613;28;20434;-65
2022/08/03 00:23:49;;;;;;;2.92;1.17;;;21.60;61.00;;;;;;5035183;28;20514;-64
2022/08/03 00:26:15;;;;;;;6.20;2.00;;;21.50;60.90;;;;;;5035026;28;20064;-69
2022/08/03 00:28:40;;;;;;;4.93;1.52;;;21.50;61.60;;;;;;5033601;28;20057;-65
2022/08/03 00:31:07;;;;;;;3.72;1.33;;;21.50;61.30;;;;;;5033583;28;20521;-65
2022/08/03 00:33:32;;;;;;;4.30;1.80;;;21.50;61.20;;;;;;5033611;28;20084;-69
2022/08/03 00:35:58;;;;;;;3.60;1.35;;;21.50;61.50;;;;;;5033707;28;20068;-65
2022/08/03 00:38:24;;;;;;;6.28;1.70;;;21.50;61.60;;;;;;5034835;28;20544;-69
2022/08/03 00:40:49;;;;;;;6.45;1.48;;;21.40;61.60;;;;;;5050326;28;20394;-69
2022/08/03 00:43:15;;;;;;;3.15;1.05;;;21.40;61.60;;;;;;5034711;28;20037;-69
2022/08/03 00:45:42;;;;;;;6.03;1.20;;;21.40;61.20;;;;;;5033203;28;20050;-69
2022/08/03 00:48:10;;;;;;;10.07;1.75;;;21.40;61.00;;;;;;5033558;28;20371;-69
2022/08/03 00:50:41;;;;;;;4.03;1.15;;;21.40;60.70;;;;;;5034557;28;20056;-69
2022/08/03 00:53:09;;;;;;;4.07;1.00;;;21.40;60.60;;;;;;5033256;28;20045;-65
2022/08/03 00:55:35;;;;;;;2.35;1.05;;;21.40;60.70;;;;;;5033214;28;20049;-68
2022/08/03 00:58:05;;;;;;;4.32;1.23;;;21.40;61.10;;;;;;5033344;28;20398;-65
2022/08/03 01:00:32;;;;;;;4.20;1.45;;;21.40;61.10;;;;;;5033151;28;20077;-69
2022/08/03 01:02:58;;;;;;;2.90;1.10;;;21.40;60.50;;;;;;5033049;28;20080;-69
2022/08/03 01:05:24;;;;;;;3.42;1.27;;;21.40;60.50;;;;;;5034352;28;20126;-69
2022/08/03 01:08:02;;;;;;;1.67;0.98;;;21.40;60.80;;;;;;5034301;28;20497;-69
2022/08/03 01:10:57;;;;;;;4.35;1.38;;;21.40;60.90;;;;;;5032983;28;20386;-65
2022/08/03 01:13:50;;;;;;;4.75;1.30;;;21.40;60.60;;;;;;5033135;28;20041;-65
2022/08/03 01:16:22;;;;;;;3.17;1.15;;;21.30;60.70;;;;;;5033936;28;20517;-64
2022/08/03 01:18:56;;;;;;;5.80;2.00;;;21.30;61.10;;;;;;5032096;28;20049;-65
2022/08/03 01:21:57;;;;;;;3.00;0.95;;;21.30;61.50;;;;;;5032541;28;20041;-69
2022/08/03 01:24:44;;;;;;;5.05;1.15;;;21.30;61.00;;;;;;5021799;28;20525;-65
2022/08/03 01:27:17;;;;;;;2.90;1.48;;;21.30;60.90;;;;;;5032375;28;20046;-69
2022/08/03 01:29:55;;;;;;;3.47;1.42;;;21.20;61.60;;;;;;5049130;28;20045;-69
2022/08/03 01:32:38;;;;;;;3.45;1.10;;;21.30;61.20;;;;;;5032397;28;20562;-65
2022/08/03 01:35:14;;;;;;;3.70;1.50;;;21.20;61.10;;;;;;5033632;28;20045;-65
2022/08/03 01:37:51;;;;;;;2.63;1.00;;;21.20;60.90;;;;;;5032222;28;20406;-65
2022/08/03 01:40:19;;;;;;;3.97;1.40;;;21.20;60.70;;;;;;5032535;28;20390;-65
2022/08/03 01:42:48;;;;;;;4.65;1.65;;;21.20;60.90;;;;;;5032202;28;20045;-69
2022/08/03 01:45:17;;;;;;;4.97;1.40;;;21.20;61.50;;;;;;5032276;28;20107;-65
2022/08/03 01:47:45;;;;;;;4.25;1.63;;;21.20;61.40;;;;;;5032350;28;20095;-70
2022/08/03 01:50:12;;;;;;;4.63;1.00;;;21.20;61.50;;;;;;5032071;28;20041;-65
2022/08/03 01:52:44;;;;;;;4.22;1.83;;;21.10;61.40;;;;;;5032193;28;20435;-65
2022/08/03 01:55:12;;;;;;;3.78;1.45;;;21.20;61.70;;;;;;5032304;28;20403;-64
2022/08/03 01:57:39;;;;;;;5.45;1.73;;;21.10;62.10;;;;;;5033330;28;20041;-65
2022/08/03 02:00:08;;;;;;;4.90;1.50;;;21.10;62.70;;;;;;5032261;28;20049;-65
2022/08/03 02:02:35;;;;;;;3.80;1.27;;;21.10;62.80;;;;;;5015938;28;20049;-65
2022/08/03 02:05:05;;;;;;;5.13;1.70;;;21.10;62.90;;;;;;5031808;28;20517;-69
2022/08/03 02:07:33;;;;;;;3.63;1.67;;;21.00;63.10;;;;;;5033296;28;20042;-69
2022/08/03 02:10:01;;;;;;;3.92;1.98;;;21.00;63.20;;;;;;5033147;28;20044;-69
2022/08/03 02:12:31;;;;;;;4.90;1.45;;;21.00;63.60;;;;;;5031992;28;20436;-70
2022/08/03 02:14:59;;;;;;;4.63;1.50;;;20.90;63.70;;;;;;5031741;28;20550;-70
2022/08/03 02:17:26;;;;;;;5.60;2.03;;;20.90;63.70;;;;;;5031727;28;20095;-70
2022/08/03 02:19:55;;;;;;;2.80;1.20;;;20.90;63.90;;;;;;5032916;28;20053;-65
2022/08/03 02:22:23;;;;;;;5.75;1.85;;;20.90;63.60;;;;;;5031525;28;20056;-65
2022/08/03 02:24:49;;;;;;;3.33;1.25;;;20.90;63.90;;;;;;5032713;28;20055;-65
2022/08/03 02:27:23;;;;;;;4.07;1.63;;;20.90;63.70;;;;;;5031422;28;20145;-65
2022/08/03 02:29:54;;;;;;;6.90;2.05;;;20.90;64.10;;;;;;5031341;28;20132;-65
2022/08/03 02:32:28;;;;;;;3.88;1.45;;;20.80;64.20;;;;;;5032781;28;20522;-69
2022/08/03 02:34:56;;;;;;;5.45;1.92;;;20.80;64.50;;;;;;5031616;28;20049;-69
2022/08/03 02:37:26;;;;;;;6.82;2.28;;;20.80;64.70;;;;;;5032900;28;20443;-69
2022/08/03 02:40:00;;;;;;;3.85;1.27;;;20.70;64.90;;;;;;5032793;28;20204;-69
2022/08/03 02:42:27;;;;;;;4.13;1.55;;;20.70;64.90;;;;;;5031459;28;20521;-65
2022/08/03 02:44:56;;;;;;;7.45;2.38;;;20.70;64.90;;;;;;5032618;28;20045;-65
2022/08/03 02:47:25;;;;;;;6.70;2.20;;;20.70;65.30;;;;;;5031437;28;20075;-69
2022/08/03 02:49:53;;;;;;;6.00;2.03;;;20.60;65.40;;;;;;5032621;28;20041;-69
2022/08/03 02:52:22;;;;;;;5.43;1.90;;;20.60;65.90;;;;;;5031199;28;20098;-69
2022/08/03 02:54:51;;;;;;;8.45;1.90;;;20.60;65.60;;;;;;5032497;28;20041;-70
2022/08/03 02:57:18;;;;;;;5.50;2.30;;;20.60;65.60;;;;;;5031613;28;20411;-64
2022/08/03 02:59:45;;;;;;;6.85;2.10;;;20.50;65.70;;;;;;5047838;28;20085;-69
2022/08/03 03:02:13;;;;;;;8.02;1.83;;;20.50;65.70;;;;;;5032577;28;20049;-69
2022/08/03 03:04:39;;;;;;;6.72;1.67;;;20.40;66.10;;;;;;5031148;28;20054;-69
2022/08/03 03:07:05;;;;;;;4.65;1.60;;;20.40;66.20;;;;;;5031213;28;20118;-64
2022/08/03 03:09:33;;;;;;;4.07;1.42;;;20.40;66.20;;;;;;5031114;28;20041;-64
2022/08/03 03:12:00;;;;;;;6.28;2.50;;;20.40;66.20;;;;;;5047943;28;20092;-64
2022/08/03 03:14:26;;;;;;;4.47;1.65;;;20.40;66.20;;;;;;5031125;28;20049;-64
2022/08/03 03:16:54;;;;;;;4.53;1.70;;;20.40;66.10;;;;;;5032536;28;20068;-64
2022/08/03 03:19:20;;;;;;;5.93;1.58;;;20.30;66.10;;;;;;5031145;28;20108;-64
2022/08/03 03:21:47;;;;;;;5.03;1.17;;;20.30;66.20;;;;;;5032152;28;20042;-64
2022/08/03 03:24:13;;;;;;;2.95;1.40;;;20.30;66.20;;;;;;5031000;28;20045;-64
2022/08/03 03:26:39;;;;;;;5.90;1.70;;;20.30;66.10;;;;;;5047717;28;20042;-64
2022/08/03 03:29:06;;;;;;;2.80;1.30;;;20.30;66.20;;;;;;5030876;28;20053;-64
2022/08/03 03:31:32;;;;;;;5.30;1.90;;;20.30;66.10;;;;;;5014842;28;20072;-64
2022/08/03 03:33:58;;;;;;;4.18;1.58;;;20.30;66.20;;;;;;5032299;28;20475;-64
2022/08/03 03:36:24;;;;;;;4.28;1.85;;;20.30;66.30;;;;;;5032178;28;20045;-64
2022/08/03 03:38:50;;;;;;;5.13;1.77;;;20.30;66.50;;;;;;5032441;28;20078;-68
2022/08/03 03:41:16;;;;;;;6.93;2.40;;;20.30;66.50;;;;;;5032368;28;20085;-69
2022/08/03 03:43:42;;;;;;;5.47;1.67;;;20.30;66.70;;;;;;5034534;28;20127;-69
2022/08/03 03:46:11;;;;;;;3.65;1.63;;;20.30;66.70;;;;;;5034677;28;20041;-64
2022/08/03 03:48:38;;;;;;;4.10;2.00;;;20.20;66.80;;;;;;5035689;28;20446;-64
2022/08/03 03:51:04;;;;;;;2.75;1.25;;;20.30;66.70;;;;;;5034294;28;20048;-64
2022/08/03 03:53:30;;;;;;;3.88;1.77;;;20.20;66.40;;;;;;5018115;28;20517;-64
2022/08/03 03:55:56;;;;;;;3.92;1.38;;;20.20;66.50;;;;;;5034331;28;20077;-64
2022/08/03 03:58:22;;;;;;;3.40;1.48;;;20.20;66.70;;;;;;5051177;28;20060;-64
2022/08/03 04:00:48;;;;;;;4.43;1.27;;;20.20;66.40;;;;;;5034530;28;20052;-68
2022/08/03 04:03:14;;;;;;;5.53;2.13;;;20.20;66.60;;;;;;5034462;28;20053;-70
2022/08/03 04:11:28;;;;;;;4.65;1.58;;;20.10;66.40;;;;;;5021777;28;20045;-65
2022/08/03 04:14:32;;;;;;;4.68;1.52;;;20.10;66.30;;;;;;5017916;28;20037;-67
2022/08/03 04:17:02;;;;;;;6.57;1.97;;;20.10;66.00;;;;;;5035202;28;20494;-65
2022/08/03 04:19:46;;;;;;;6.82;1.55;;;20.10;66.50;;;;;;5033887;28;20052;-69
2022/08/03 04:22:16;;;;;;;6.78;1.80;;;20.10;66.60;;;;;;5034936;28;20041;-69
2022/08/03 04:24:48;;;;;;;5.60;1.70;;;20.10;66.80;;;;;;5033754;28;20045;-69
2022/08/03 04:27:19;;;;;;;5.47;2.00;;;20.10;67.00;;;;;;5050343;28;20064;-65
2022/08/03 04:29:47;;;;;;;6.57;1.73;;;20.10;67.20;;;;;;5034991;28;20555;-64
2022/08/03 04:32:14;;;;;;;8.00;2.10;;;20.10;67.10;;;;;;5034954;28;20136;-64
2022/08/03 04:34:39;;;;;;;4.93;1.55;;;20.10;66.90;;;;;;5033510;28;20569;-69
2022/08/03 04:37:11;;;;;;;4.82;1.65;;;20.10;67.00;;;;;;5033595;28;20081;-69
2022/08/03 04:39:40;;;;;;;5.43;1.70;;;20.10;66.90;;;;;;5033461;28;20504;-65
2022/08/03 04:42:07;;;;;;;4.90;2.05;;;20.10;67.10;;;;;;5033406;28;20052;-65
2022/08/03 04:44:40;;;;;;;6.60;2.25;;;20.10;67.10;;;;;;5033501;28;20410;-69
2022/08/03 04:47:06;;;;;;;7.97;2.30;;;20.10;67.10;;;;;;5033300;28;20072;-70
2022/08/03 04:49:36;;;;;;;5.10;2.03;;;20.10;67.30;;;;;;5034675;28;20382;-68
2022/08/03 04:52:02;;;;;;;7.45;1.90;;;20.10;67.40;;;;;;5032433;28;20497;-68
2022/08/03 04:54:28;;;;;;;5.80;1.50;;;20.10;67.60;;;;;;5033040;28;20045;-68
2022/08/03 04:56:53;;;;;;;5.70;2.00;;;20.10;67.70;;;;;;5033262;28;20044;-69
2022/08/03 04:59:19;;;;;;;4.90;2.45;;;20.10;67.80;;;;;;5034517;28;20144;-68
2022/08/03 05:01:45;;;;;;;8.15;2.33;;;20.10;68.10;;;;;;5033114;28;20107;-65
2022/08/03 05:04:10;;;;;;;7.00;2.30;;;20.10;68.30;;;;;;5034273;28;20395;-69
2022/08/03 05:06:36;;;;;;;6.20;2.00;;;20.10;68.50;;;;;;5034335;28;20091;-65
2022/08/03 05:09:02;;;;;;;6.32;2.13;;;20.10;68.40;;;;;;5032932;28;20123;-65
2022/08/03 05:11:28;;;;;;;7.20;2.35;;;20.10;68.80;;;;;;5034123;28;20046;-69
2022/08/03 05:13:53;;;;;;;5.95;2.50;;;20.10;69.30;;;;;;5034071;28;20034;-69
2022/08/03 05:16:19;;;;;;;7.10;3.10;;;20.20;69.70;;;;;;5032712;28;20049;-69
2022/08/03 05:18:45;;;;;;;7.70;2.50;;;20.20;70.00;;;;;;5032727;28;20099;-69
2022/08/03 05:21:13;;;;;;;8.23;3.30;;;20.20;70.00;;;;;;5033917;28;20094;-69
2022/08/03 05:23:40;;;;;;;5.57;2.22;;;20.30;70.10;;;;;;5032674;28;20124;-69
2022/08/03 05:26:05;;;;;;;6.75;2.30;;;20.30;69.90;;;;;;5032541;28;20103;-64
2022/08/03 05:28:31;;;;;;;7.45;2.35;;;20.40;69.90;;;;;;5033689;28;20057;-68
2022/08/03 05:30:57;;;;;;;6.60;2.80;;;20.40;69.60;;;;;;5033741;28;20042;-63
2022/08/03 05:33:22;;;;;;;6.85;2.80;;;20.50;69.70;;;;;;5032505;28;20117;-63
2022/08/03 05:35:48;;;;;;;7.10;2.80;;;20.50;69.50;;;;;;5032471;28;20042;-63
2022/08/03 05:38:14;;;;;;;5.28;2.42;;;20.50;69.40;;;;;;5032392;28;20045;-63
2022/08/03 05:40:39;;;;;;;6.85;2.33;;;20.60;69.50;;;;;;5033555;28;20049;-64
2022/08/03 05:43:05;;;;;;;8.75;3.20;;;20.60;69.50;;;;;;5033484;28;20117;-65
2022/08/03 05:45:31;;;;;;;8.00;3.13;;;20.70;69.60;;;;;;5033417;28;20049;-65
2022/08/03 05:47:56;;;;;;;5.10;2.22;;;20.70;69.70;;;;;;5033660;28;20048;-69
2022/08/03 05:50:22;;;;;;;7.72;2.30;;;20.70;69.80;;;;;;5015764;28;20045;-69
2022/08/03 05:52:47;;;;;;;8.93;3.33;;;20.80;70.00;;;;;;5015574;28;20116;-69
2022/08/03 05:55:13;;;;;;;7.97;2.85;;;20.90;70.40;;;;;;5033679;28;20413;-68
2022/08/03 05:57:40;;;;;;;8.50;2.50;;;21.10;70.50;;;;;;5032034;28;20049;-69
2022/08/03 06:00:08;;;;;;;8.02;2.88;;;21.40;70.40;;;;;;5031981;28;20080;-69
2022/08/03 06:02:34;;;;;;;9.07;2.60;;;21.70;69.80;;;;;;5032234;28;20054;-63
2022/08/03 06:04:59;;;;;;;12.55;2.85;;;22.10;69.30;;;;;;5031686;28;20041;-64
2022/08/03 06:07:25;;;;;;;8.98;2.20;;;22.50;68.40;;;;;;5031817;28;20045;-68
2022/08/03 06:09:51;;;;;;;7.78;2.13;;;22.90;67.00;;;;;;5031723;28;20037;-68
2022/08/03 06:12:17;;;;;;;9.32;2.88;;;23.30;66.00;;;;;;5032144;28;20041;-64
2022/08/03 06:14:43;;;;;;;11.18;2.92;;;23.60;64.90;;;;;;5032980;28;20056;-64
2022/08/03 06:17:08;;;;;;;7.60;2.55;;;23.80;63.70;;;;;;5031758;28;20478;-68
2022/08/03 06:19:34;;;;;;;9.00;2.40;;;24.00;62.50;;;;;;5031782;28;20485;-69
2022/08/03 06:22:00;;;;;;;8.60;2.58;;;24.20;62.40;;;;;;5031394;28;20481;-68
2022/08/03 06:24:25;;;;;;;13.52;3.30;;;24.30;61.50;;;;;;5031666;28;20053;-64
2022/08/03 06:26:51;;;;;;;7.38;2.78;;;24.50;60.90;;;;;;5032728;28;20059;-64
2022/08/03 06:29:17;;;;;;;7.90;2.85;;;24.70;60.70;;;;;;5031543;28;20049;-65
2022/08/03 06:31:42;;;;;;;4.80;2.50;;;24.90;60.30;;;;;;5031590;28;20077;-65
2022/08/03 06:34:08;;;;;;;9.13;2.92;;;24.90;59.70;;;;;;5031761;28;20033;-65
2022/08/03 06:36:34;;;;;;;11.45;3.38;;;24.90;59.40;;;;;;5031534;28;20507;-65
2022/08/03 06:39:00;;;;;;;10.73;3.03;;;25.00;59.30;;;;;;5031774;28;20064;-64
2022/08/03 06:41:26;;;;;;;11.70;3.13;;;25.00;59.20;;;;;;5032738;28;20045;-65
2022/08/03 06:43:52;;;;;;;8.13;2.40;;;25.00;59.10;;;;;;5031454;28;20051;-64
2022/08/03 06:46:19;;;;;;;7.30;2.55;;;25.00;58.80;;;;;;5031269;28;20038;-64
2022/08/03 06:48:44;;;;;;;11.88;3.28;;;25.10;58.90;;;;;;5031338;28;20053;-64
2022/08/03 06:51:10;;;;;;;10.70;3.15;;;25.10;58.70;;;;;;5031381;28;20049;-64
2022/08/03 06:53:36;;;;;;;7.35;3.13;;;25.10;58.50;;;;;;5014919;28;20076;-64
2022/08/03 06:56:04;;;;;;;11.13;3.15;;;25.10;58.60;;;;;;5031739;28;20080;-64
2022/08/03 06:58:30;;;;;;;10.23;4.18;;;25.20;58.70;;;;;;5031231;28;20120;-64
2022/08/03 07:00:55;;;;;;;9.40;3.65;;;25.30;58.60;;;;;;5031522;28;20144;-64
2022/08/03 07:03:21;;;;;;;9.40;2.67;;;25.40;58.50;;;;;;5031480;28;20054;-64
2022/08/03 07:05:47;;;;;;;9.82;3.28;;;25.40;58.50;;;;;;5031115;28;20045;-64
2022/08/03 07:08:14;;;;;;;6.95;2.88;;;25.40;58.40;;;;;;5031158;28;20045;-64
2022/08/03 07:10:40;;;;;;;9.45;3.25;;;25.50;58.30;;;;;;5031192;28;20073;-64
2022/08/03 07:13:05;;;;;;;6.60;2.40;;;25.50;58.00;;;;;;5031391;28;20451;-65
2022/08/03 07:15:32;;;;;;;10.15;2.95;;;25.60;57.70;;;;;;5015297;28;20132;-69
2022/08/03 07:17:58;;;;;;;7.30;3.55;;;25.70;58.40;;;;;;5034989;28;20053;-70
2022/08/03 07:20:24;;;;;;;8.98;3.10;;;25.70;57.90;;;;;;5034796;28;20068;-69
2022/08/03 07:22:49;;;;;;;8.50;3.13;;;25.80;57.60;;;;;;5036107;28;20038;-69
2022/08/03 07:25:15;;;;;;;9.30;3.40;;;25.90;57.70;;;;;;5034802;28;20049;-69
2022/08/03 07:27:44;;;;;;;9.70;2.90;;;25.90;57.60;;;;;;5035935;28;20104;-69
2022/08/03 07:30:11;;;;;;;10.13;2.50;;;26.00;57.40;;;;;;5034722;28;20168;-65
2022/08/03 07:32:37;;;;;;;9.57;3.10;;;26.30;57.60;;;;;;5034932;28;20116;-65
2022/08/03 07:35:05;;;;;;;12.13;3.58;;;26.50;57.70;;;;;;5035927;28;20049;-65
2022/08/03 07:37:31;;;;;;;11.20;3.22;;;26.80;57.20;;;;;;5034696;28;20057;-65
2022/08/03 07:40:01;;;;;;;12.90;3.15;;;27.00;56.30;;;;;;5035868;28;20053;-65
2022/08/03 07:42:27;;;;;;;9.10;3.40;;;27.20;55.70;;;;;;5034527;28;20045;-63
2022/08/03 07:44:53;;;;;;;8.48;2.58;;;27.30;55.50;;;;;;5034557;28;20048;-70
2022/08/03 07:47:23;;;;;;;10.57;3.00;;;27.50;55.50;;;;;;5034798;28;20216;-68
2022/08/03 07:49:49;;;;;;;9.70;2.97;;;27.80;55.20;;;;;;5034819;28;20429;-69
2022/08/03 07:54:59;;;;;;;8.35;2.80;;;28.30;53.90;;;;;;5035838;28;20502;-68
2022/08/03 07:57:25;;;;;;;8.73;3.35;;;28.50;53.40;;;;;;5034618;28;20084;-68
2022/08/03 07:59:51;;;;;;;12.27;2.70;;;28.70;53.00;;;;;;5034356;28;20394;-69
2022/08/03 08:02:16;;;;;;;8.73;3.53;;;29.00;52.90;;;;;;5035617;28;20033;-69
2022/08/03 08:04:42;;;;;;;15.15;3.60;;;29.20;52.50;;;;;;5034209;28;20049;-70
2022/08/03 08:07:08;;;;;;;9.77;2.58;;;29.40;52.60;;;;;;5017963;28;20041;-65
2022/08/03 08:09:34;;;;;;;6.93;2.50;;;29.60;51.80;;;;;;5034104;28;20056;-65
2022/08/03 08:12:00;;;;;;;9.65;2.75;;;29.80;51.40;;;;;;5035365;28;20107;-64
2022/08/03 08:14:26;;;;;;;8.15;2.40;;;30.00;51.20;;;;;;5034266;28;20049;-65
2022/08/03 08:16:51;;;;;;;12.55;3.15;;;30.10;50.60;;;;;;5034239;28;20645;-65
2022/08/03 08:19:17;;;;;;;7.15;3.10;;;30.30;50.50;;;;;;5033879;28;20048;-64
2022/08/03 08:21:43;;;;;;;8.98;2.95;;;30.50;49.60;;;;;;5033630;28;20052;-64
2022/08/03 08:24:09;;;;;;;8.27;2.50;;;30.60;49.40;;;;;;5034989;28;20037;-64
2022/08/03 08:26:35;;;;;;;8.18;3.20;;;30.70;49.30;;;;;;5034803;28;20041;-64
2022/08/03 08:29:02;;;;;;;9.43;3.40;;;30.80;49.10;;;;;;5033443;28;20490;-64
2022/08/03 08:31:28;;;;;;;9.77;2.60;;;30.90;48.80;;;;;;5033724;28;20045;-64
2022/08/03 08:33:54;;;;;;;9.73;2.72;;;31.00;48.70;;;;;;5033631;28;20044;-64
2022/08/03 08:36:20;;;;;;;10.30;2.72;;;31.20;48.80;;;;;;5033586;28;20111;-65
2022/08/03 08:38:46;;;;;;;7.82;3.17;;;31.40;48.60;;;;;;5034740;28;20065;-65
2022/08/03 08:41:13;;;;;;;11.43;3.28;;;31.50;48.00;;;;;;5034757;28;20044;-69
2022/08/03 08:43:40;;;;;;;7.40;2.65;;;31.60;47.80;;;;;;5034647;28;20041;-71
2022/08/03 08:46:10;;;;;;;11.68;3.20;;;31.80;47.90;;;;;;5050373;28;20193;-70
2022/08/03 08:48:40;;;;;;;10.73;3.13;;;31.90;47.60;;;;;;5033657;28;20064;-70
2022/08/03 08:51:08;;;;;;;8.32;2.40;;;32.00;47.20;;;;;;5033386;28;20486;-70
2022/08/03 08:53:36;;;;;;;10.60;2.63;;;32.10;47.00;;;;;;5034587;28;20052;-69
2022/08/03 08:56:02;;;;;;;8.38;3.15;;;32.20;46.80;;;;;;5033513;28;20144;-69
2022/08/03 08:58:39;;;;;;;9.85;2.55;;;32.30;46.10;;;;;;5050019;28;20553;-69
2022/08/03 09:01:05;;;;;;;5.45;2.10;;;32.30;46.50;;;;;;5034611;28;20034;-69
2022/08/03 09:03:33;;;;;;;5.60;2.38;;;32.40;46.60;;;;;;5033339;28;20556;-70
2022/08/03 09:06:00;;;;;;;6.35;2.15;;;32.40;46.20;;;;;;5033397;28;20049;-69
2022/08/03 09:08:27;;;;;;;14.13;3.28;;;32.50;46.50;;;;;;5033579;28;20057;-71
2022/08/03 09:10:53;;;;;;;7.35;2.72;;;32.60;46.40;;;;;;5033600;28;20095;-70
2022/08/03 09:13:19;;;;;;;8.00;2.30;;;32.70;46.20;;;;;;5034416;28;20486;-69
2022/08/03 09:15:45;;;;;;;8.93;2.38;;;32.80;45.80;;;;;;5033072;28;20108;-69
2022/08/03 09:18:12;;;;;;;8.13;2.25;;;32.90;45.90;;;;;;5034251;28;20045;-70
2022/08/03 09:20:38;;;;;;;8.23;2.05;;;32.90;45.70;;;;;;5034370;28;20041;-70
2022/08/03 09:23:09;;;;;;;7.53;2.30;;;33.00;45.60;;;;;;5049550;28;20544;-65
2022/08/03 09:25:40;;;;;;;13.85;3.03;;;33.10;45.50;;;;;;5033989;28;20037;-65
2022/08/03 09:28:16;;;;;;;7.22;2.58;;;33.20;45.80;;;;;;5033791;28;20050;-65
2022/08/03 09:30:57;;;;;;;9.43;2.55;;;33.30;45.20;;;;;;5032648;28;20041;-69
2022/08/03 09:33:23;;;;;;;9.55;2.85;;;33.30;45.60;;;;;;5033807;28;20486;-69
2022/08/03 09:35:49;;;;;;;9.05;3.00;;;33.30;45.20;;;;;;5032754;28;20051;-69
2022/08/03 09:38:24;;;;;;;10.02;2.58;;;33.40;45.10;;;;;;5033126;28;20045;-69
2022/08/03 09:40:51;;;;;;;9.82;2.92;;;33.40;44.90;;;;;;5032878;28;20053;-69
2022/08/03 09:43:17;;;;;;;10.35;3.63;;;33.30;45.50;;;;;;5032769;28;20514;-69
2022/08/03 09:45:43;;;;;;;9.63;2.75;;;33.40;45.10;;;;;;5033890;28;20077;-70
2022/08/03 09:48:30;;;;;;;9.45;3.00;;;33.50;45.20;;;;;;5033750;28;20048;-69
2022/08/03 09:51:00;;;;;;;10.38;3.00;;;33.60;45.40;;;;;;5032596;28;20124;-69
2022/08/03 09:53:26;;;;;;;9.75;3.47;;;33.60;44.90;;;;;;5032412;28;20045;-69
2022/08/03 09:55:56;;;;;;;8.63;3.05;;;33.60;44.80;;;;;;5033577;28;20056;-69
2022/08/03 09:58:30;;;;;;;10.80;3.22;;;33.60;45.00;;;;;;5033335;28;20041;-69
2022/08/03 10:01:02;;;;;;;10.88;3.10;;;33.60;44.40;;;;;;5033415;28;20084;-70
2022/08/03 10:03:33;;;;;;;13.30;4.38;;;33.60;44.30;;;;;;5032160;28;20127;-70
2022/08/03 10:06:14;;;;;;;10.20;3.33;;;33.70;44.50;;;;;;5031774;28;20058;-70
2022/08/03 10:08:40;;;;;;;13.38;3.25;;;33.70;44.50;;;;;;5031805;28;20119;-70
2022/08/03 10:11:05;;;;;;;11.48;3.20;;;33.60;43.90;;;;;;5031822;28;20119;-69
2022/08/03 10:13:32;;;;;;;10.02;2.92;;;33.60;43.60;;;;;;5031952;28;20061;-71
2022/08/03 10:15:58;;;;;;;9.43;2.10;;;33.60;44.00;;;;;;5032338;28;20076;-69
2022/08/03 10:18:23;;;;;;;11.00;2.88;;;33.60;44.40;;;;;;5031616;28;20049;-69
2022/08/03 10:20:52;;;;;;;9.85;2.95;;;33.80;44.00;;;;;;5031593;28;20049;-69
2022/08/03 10:23:20;;;;;;;9.43;3.28;;;33.70;43.40;;;;;;5031611;28;20562;-70
2022/08/03 10:25:49;;;;;;;10.77;3.30;;;33.80;43.40;;;;;;5033181;28;20077;-69
2022/08/03 10:28:18;;;;;;;8.90;2.95;;;33.70;42.80;;;;;;5031831;28;20090;-69
2022/08/03 10:30:49;;;;;;;9.60;3.72;;;33.70;43.70;;;;;;5031627;28;20403;-69
2022/08/03 10:33:26;;;;;;;12.55;3.53;;;33.80;43.60;;;;;;5031690;28;20037;-69
2022/08/03 10:35:55;;;;;;;12.93;3.58;;;33.80;43.50;;;;;;5031985;28;20046;-70
2022/08/03 10:38:28;;;;;;;12.63;3.60;;;33.80;43.60;;;;;;5031687;28;20045;-65
2022/08/03 10:40:54;;;;;;;13.07;3.33;;;33.90;43.30;;;;;;5032756;28;20049;-65
2022/08/03 10:43:49;;;;;;;11.50;3.63;;;33.90;43.00;;;;;;5031671;28;20045;-69
2022/08/03 10:46:18;;;;;;;10.80;3.03;;;33.90;43.30;;;;;;5031504;28;20072;-69
2022/08/03 10:48:44;;;;;;;11.30;3.25;;;33.90;43.30;;;;;;5031314;28;20053;-69
2022/08/03 10:51:11;;;;;;;10.15;2.85;;;34.00;43.00;;;;;;5035208;28;20045;-69
2022/08/03 10:53:42;;;;;;;12.52;3.50;;;33.90;42.90;;;;;;5036390;28;20034;-69
2022/08/03 10:59:44;;;;;;;7.88;2.83;;;34.10;43.90;;;;;;5035727;28;20136;-69
2022/08/03 11:02:11;;;;;;;13.30;3.42;;;34.20;43.60;;;;;;5035548;28;20083;-65
2022/08/03 11:04:37;;;;;;;10.00;2.55;;;34.10;43.00;;;;;;5035510;28;20041;-66
2022/08/03 11:07:22;;;;;;;11.60;3.53;;;34.10;43.40;;;;;;5036489;28;20445;-65
2022/08/03 11:09:53;;;;;;;13.68;3.78;;;34.20;43.30;;;;;;5035213;28;20117;-65
2022/08/03 11:12:31;;;;;;;14.75;3.85;;;34.20;42.40;;;;;;5035130;28;20041;-65
2022/08/03 11:15:01;;;;;;;9.57;3.53;;;34.10;42.30;;;;;;5036548;28;20091;-65
2022/08/03 11:17:27;;;;;;;11.88;3.63;;;34.10;42.40;;;;;;5018890;28;20124;-65
2022/08/03 11:19:53;;;;;;;8.90;2.67;;;34.00;42.40;;;;;;5034996;28;20485;-64
2022/08/03 11:22:20;;;;;;;11.50;3.53;;;34.00;42.70;;;;;;5036306;28;20132;-69
2022/08/03 11:24:49;;;;;;;9.07;2.97;;;34.00;42.30;;;;;;5036062;28;20041;-69
2022/08/03 11:27:28;;;;;;;9.65;3.25;;;34.00;42.50;;;;;;5034773;28;20048;-67
2022/08/03 11:30:06;;;;;;;9.15;2.97;;;34.10;42.90;;;;;;5035086;28;20169;-69
2022/08/03 11:32:44;;;;;;;7.88;2.90;;;34.10;42.90;;;;;;5034779;28;20050;-69
2022/08/03 11:35:30;;;;;;;11.80;2.95;;;34.10;41.90;;;;;;5034807;28;20045;-68
2022/08/03 11:37:59;;;;;;;10.10;3.25;;;34.10;42.00;;;;;;5034667;28;20052;-70
2022/08/03 11:40:52;;;;;;;9.63;2.92;;;34.10;42.50;;;;;;5034948;28;20045;-68
2022/08/03 11:43:21;;;;;;;11.05;3.10;;;34.20;42.60;;;;;;5034590;28;20049;-68
2022/08/03 11:46:00;;;;;;;11.43;2.95;;;34.20;42.30;;;;;;5034624;28;20052;-70
2022/08/03 11:48:34;;;;;;;11.85;3.47;;;34.30;42.80;;;;;;5034515;28;20042;-68
2022/08/03 11:51:01;;;;;;;11.13;3.28;;;34.30;42.20;;;;;;5035731;28;20048;-68
2022/08/03 11:53:26;;;;;;;11.23;3.55;;;34.40;42.30;;;;;;5034486;28;20038;-68
2022/08/03 11:55:52;;;;;;;12.80;2.97;;;34.30;42.30;;;;;;5034304;28;20049;-68
2022/08/03 11:58:20;;;;;;;12.07;3.38;;;34.40;42.60;;;;;;5051100;28;20047;-68
2022/08/03 12:00:46;;;;;;;13.45;3.78;;;34.50;42.20;;;;;;5034450;28;20553;-68
2022/08/03 12:03:14;;;;;;;13.40;3.47;;;34.50;41.70;;;;;;5035106;28;20108;-69
2022/08/03 12:05:43;;;;;;;11.07;3.00;;;34.50;42.00;;;;;;5034046;28;20133;-69
2022/08/03 12:08:10;;;;;;;9.25;2.75;;;34.50;42.10;;;;;;5034312;28;20041;-68
2022/08/03 12:10:37;;;;;;;9.18;2.50;;;34.50;42.10;;;;;;5034017;28;20045;-69
2022/08/03 12:13:06;;;;;;;9.20;2.80;;;34.60;42.50;;;;;;5035201;28;20041;-69
2022/08/03 12:15:36;;;;;;;10.23;2.90;;;34.60;42.40;;;;;;5035307;28;20518;-68
2022/08/03 12:18:03;;;;;;;10.77;3.60;;;34.70;42.20;;;;;;5034156;28;20410;-68
2022/08/03 12:20:30;;;;;;;9.85;3.00;;;34.60;42.20;;;;;;5035181;28;20120;-68
2022/08/03 12:23:06;;;;;;;11.95;3.60;;;34.70;41.50;;;;;;5033757;28;20053;-70
2022/08/03 12:25:33;;;;;;;13.68;3.10;;;34.80;41.40;;;;;;5033656;28;20053;-69
2022/08/03 12:28:08;;;;;;;10.40;3.10;;;34.70;41.80;;;;;;5033807;28;20049;-70
2022/08/03 12:30:34;;;;;;;9.38;2.60;;;34.80;41.80;;;;;;5034893;28;20072;-69
2022/08/03 12:33:14;;;;;;;11.68;3.17;;;34.70;41.60;;;;;;5033652;28;20045;-69
2022/08/03 12:35:40;;;;;;;9.85;3.10;;;34.80;41.20;;;;;;5033738;28;20053;-69
2022/08/03 12:38:05;;;;;;;9.65;2.65;;;34.70;40.80;;;;;;5033597;28;20058;-68
2022/08/03 12:40:31;;;;;;;10.90;3.03;;;34.70;40.70;;;;;;5035065;28;20057;-68
2022/08/03 12:42:57;;;;;;;7.32;2.30;;;34.70;40.90;;;;;;5034772;28;20391;-67
2022/08/03 12:45:25;;;;;;;7.78;2.65;;;34.60;41.20;;;;;;5033452;28;20091;-68
2022/08/03 12:47:59;;;;;;;7.07;2.08;;;34.60;40.70;;;;;;5033391;28;20045;-67
2022/08/03 12:50:29;;;;;;;10.90;3.50;;;34.60;41.20;;;;;;5033362;28;20048;-67
2022/08/03 12:52:56;;;;;;;8.20;2.45;;;34.70;40.80;;;;;;5034856;28;20061;-69
2022/08/03 12:55:23;;;;;;;12.10;2.80;;;34.60;41.20;;;;;;5033333;28;20053;-67
2022/08/03 12:57:49;;;;;;;6.30;2.17;;;34.70;40.50;;;;;;5033191;28;20120;-68
2022/08/03 13:00:17;;;;;;;8.45;2.78;;;34.70;41.40;;;;;;5034422;28;20187;-68
2022/08/03 13:02:43;;;;;;;7.78;2.65;;;34.70;41.10;;;;;;5034327;28;20100;-68
2022/08/03 13:05:17;;;;;;;15.20;6.28;;;34.60;40.80;;;;;;5032922;28;20042;-67